Terminal Aerodrome Forecast
Issued by NWS

Home | Current Version | Previous Version | Text Only | Print | Product List | Glossary On
Versions: 1 2 3 4 5 6 7 8 9 10 11 12 13 14 15 16 17 18 19
000
FTUS43 KAPX 050656 AAA
TAFTVC
TAF AMD
KTVC 050656Z 0507/0606 35006KT P6SM OVC026
      TEMPO 0507/0511 OVC019
     FM051400 36007KT P6SM SCT025
     FM051600 02008KT P6SM FEW250
     FM060100 00000KT P6SM SCT100 SCT250=

USA.gov is the U.S. government's official web portal to all federal, state and local government web resources and services.